Terminal Aerodrome Forecast
Issued by NWS

Home | Current Version | Previous Version | Text Only | Print | Product List | Glossary On
Versions: 1 2 3 4 5 6 7 8 9 10 11 12 13 14 15 16 17 18 19 20 21 22 23 24 25 26 27 28 29 30 31
000
FTUS43 KLOT 190301 AAA
TAFDPA
TAF AMD
KDPA 190301Z 1903/1924 21010KT P6SM BKN008
     FM190330 22009KT 3SM BR SCT008
     FM190700 21005KT 1SM BR SCT006
     FM191500 16008KT 6SM BR SCT006 BKN100
     FM192000 11008KT P6SM OVC035=

USA.gov is the U.S. government's official web portal to all federal, state and local government web resources and services.